sensor_id;sensor_type;location;lat;lon;timestamp;P1;durP1;ratioP1;P2;durP2;ratioP2
10896;SDS011;5501;51.176;6.470;2022-11-18T00:04:55;3.00;;;1.38;;
10896;SDS011;5501;51.176;6.470;2022-11-18T00:09:56;3.38;;;1.52;;
10896;SDS011;5501;51.176;6.470;2022-11-18T00:14:58;3.55;;;1.75;;
10896;SDS011;5501;51.176;6.470;2022-11-18T00:19:59;3.58;;;1.20;;
10896;SDS011;5501;51.176;6.470;2022-11-18T00:25:01;2.60;;;1.40;;
10896;SDS011;5501;51.176;6.470;2022-11-18T00:30:03;4.47;;;1.48;;
10896;SDS011;5501;51.176;6.470;2022-11-18T00:35:04;2.78;;;1.25;;
10896;SDS011;5501;51.176;6.470;2022-11-18T00:40:06;1.92;;;1.58;;
10896;SDS011;5501;51.176;6.470;2022-11-18T00:45:08;1.88;;;1.40;;
10896;SDS011;5501;51.176;6.470;2022-11-18T00:50:10;3.03;;;1.38;;
10896;SDS011;5501;51.176;6.470;2022-11-18T00:55:12;2.20;;;1.30;;
10896;SDS011;5501;51.176;6.470;2022-11-18T01:00:13;3.30;;;1.45;;
10896;SDS011;5501;51.176;6.470;2022-11-18T01:05:15;3.00;;;1.60;;
10896;SDS011;5501;51.176;6.470;2022-11-18T01:10:16;2.50;;;1.65;;
10896;SDS011;5501;51.176;6.470;2022-11-18T01:15:17;2.80;;;1.67;;
10896;SDS011;5501;51.176;6.470;2022-11-18T01:20:19;3.38;;;1.30;;
10896;SDS011;5501;51.176;6.470;2022-11-18T01:25:20;2.95;;;1.45;;
10896;SDS011;5501;51.176;6.470;2022-11-18T01:30:22;3.30;;;1.63;;
10896;SDS011;5501;51.176;6.470;2022-11-18T01:35:24;5.57;;;1.48;;
10896;SDS011;5501;51.176;6.470;2022-11-18T01:40:26;1.92;;;1.48;;
10896;SDS011;5501;51.176;6.470;2022-11-18T01:45:39;3.50;;;1.80;;
10896;SDS011;5501;51.176;6.470;2022-11-18T01:50:43;4.10;;;1.50;;
10896;SDS011;5501;51.176;6.470;2022-11-18T01:55:49;1.42;;;1.20;;
10896;SDS011;5501;51.176;6.470;2022-11-18T02:00:54;3.92;;;1.35;;
10896;SDS011;5501;51.176;6.470;2022-11-18T02:05:55;3.25;;;1.75;;
10896;SDS011;5501;51.176;6.470;2022-11-18T02:10:59;3.58;;;1.40;;
10896;SDS011;5501;51.176;6.470;2022-11-18T02:21:27;1.63;;;1.20;;
10896;SDS011;5501;51.176;6.470;2022-11-18T02:26:54;2.28;;;1.50;;
10896;SDS011;5501;51.176;6.470;2022-11-18T02:32:08;5.82;;;1.67;;
10896;SDS011;5501;51.176;6.470;2022-11-18T02:37:41;4.15;;;1.75;;
10896;SDS011;5501;51.176;6.470;2022-11-18T02:42:50;2.30;;;1.38;;
10896;SDS011;5501;51.176;6.470;2022-11-18T02:47:56;5.78;;;1.77;;
10896;SDS011;5501;51.176;6.470;2022-11-18T02:53:03;9.77;;;1.88;;
10896;SDS011;5501;51.176;6.470;2022-11-18T02:58:08;3.65;;;1.63;;
10896;SDS011;5501;51.176;6.470;2022-11-18T03:08:38;2.75;;;1.27;;
10896;SDS011;5501;51.176;6.470;2022-11-18T03:19:22;10.23;;;1.17;;
10896;SDS011;5501;51.176;6.470;2022-11-18T03:24:32;2.00;;;1.13;;
10896;SDS011;5501;51.176;6.470;2022-11-18T03:29:35;3.35;;;1.70;;
10896;SDS011;5501;51.176;6.470;2022-11-18T03:34:45;3.38;;;1.40;;
10896;SDS011;5501;51.176;6.470;2022-11-18T03:39:53;3.40;;;1.30;;
10896;SDS011;5501;51.176;6.470;2022-11-18T03:45:02;3.25;;;1.02;;
10896;SDS011;5501;51.176;6.470;2022-11-18T03:50:12;2.78;;;1.52;;
10896;SDS011;5501;51.176;6.470;2022-11-18T03:55:28;6.65;;;1.60;;
10896;SDS011;5501;51.176;6.470;2022-11-18T04:00:38;3.10;;;1.45;;
10896;SDS011;5501;51.176;6.470;2022-11-18T04:10:48;2.33;;;1.30;;
10896;SDS011;5501;51.176;6.470;2022-11-18T04:16:06;5.03;;;1.15;;
10896;SDS011;5501;51.176;6.470;2022-11-18T04:21:09;13.55;;;2.10;;
10896;SDS011;5501;51.176;6.470;2022-11-18T04:26:11;3.47;;;1.15;;
10896;SDS011;5501;51.176;6.470;2022-11-18T04:31:12;6.72;;;1.30;;
10896;SDS011;5501;51.176;6.470;2022-11-18T04:36:14;1.58;;;1.20;;
10896;SDS011;5501;51.176;6.470;2022-11-18T04:41:15;1.45;;;0.98;;
10896;SDS011;5501;51.176;6.470;2022-11-18T04:46:17;2.55;;;1.27;;
10896;SDS011;5501;51.176;6.470;2022-11-18T04:51:18;2.20;;;1.30;;
10896;SDS011;5501;51.176;6.470;2022-11-18T04:56:20;2.45;;;1.40;;
10896;SDS011;5501;51.176;6.470;2022-11-18T05:01:21;5.13;;;1.80;;
10896;SDS011;5501;51.176;6.470;2022-11-18T05:06:23;3.38;;;1.52;;
10896;SDS011;5501;51.176;6.470;2022-11-18T05:11:25;1.80;;;1.08;;
10896;SDS011;5501;51.176;6.470;2022-11-18T05:16:46;4.00;;;1.13;;
10896;SDS011;5501;51.176;6.470;2022-11-18T05:21:47;2.22;;;1.20;;
10896;SDS011;5501;51.176;6.470;2022-11-18T05:26:50;4.32;;;1.50;;
10896;SDS011;5501;51.176;6.470;2022-11-18T05:31:52;1.55;;;1.13;;
10896;SDS011;5501;51.176;6.470;2022-11-18T05:36:53;3.50;;;1.50;;
10896;SDS011;5501;51.176;6.470;2022-11-18T05:41:55;3.15;;;1.50;;
10896;SDS011;5501;51.176;6.470;2022-11-18T05:47:15;3.00;;;0.98;;
10896;SDS011;5501;51.176;6.470;2022-11-18T05:52:16;4.45;;;1.90;;
10896;SDS011;5501;51.176;6.470;2022-11-18T05:57:18;4.63;;;1.35;;
10896;SDS011;5501;51.176;6.470;2022-11-18T06:02:20;3.75;;;1.58;;
10896;SDS011;5501;51.176;6.470;2022-11-18T06:07:26;3.50;;;1.23;;
10896;SDS011;5501;51.176;6.470;2022-11-18T06:12:39;3.95;;;1.50;;
10896;SDS011;5501;51.176;6.470;2022-11-18T06:17:45;6.40;;;1.10;;
10896;SDS011;5501;51.176;6.470;2022-11-18T06:22:54;2.70;;;2.03;;
10896;SDS011;5501;51.176;6.470;2022-11-18T06:27:58;1.98;;;1.27;;
10896;SDS011;5501;51.176;6.470;2022-11-18T06:33:02;3.17;;;1.48;;
10896;SDS011;5501;51.176;6.470;2022-11-18T06:38:03;2.28;;;1.20;;
10896;SDS011;5501;51.176;6.470;2022-11-18T06:43:06;2.53;;;1.40;;
10896;SDS011;5501;51.176;6.470;2022-11-18T06:48:26;2.05;;;1.45;;
10896;SDS011;5501;51.176;6.470;2022-11-18T06:53:28;1.77;;;1.27;;
10896;SDS011;5501;51.176;6.470;2022-11-18T06:58:29;5.90;;;2.10;;
10896;SDS011;5501;51.176;6.470;2022-11-18T07:03:31;2.22;;;1.50;;
10896;SDS011;5501;51.176;6.470;2022-11-18T07:08:36;5.47;;;1.52;;
10896;SDS011;5501;51.176;6.470;2022-11-18T07:13:39;2.63;;;1.63;;
10896;SDS011;5501;51.176;6.470;2022-11-18T07:18:44;4.38;;;1.92;;
10896;SDS011;5501;51.176;6.470;2022-11-18T07:23:47;1.63;;;1.50;;
10896;SDS011;5501;51.176;6.470;2022-11-18T07:28:49;3.33;;;1.90;;
10896;SDS011;5501;51.176;6.470;2022-11-18T07:33:51;2.95;;;1.75;;
10896;SDS011;5501;51.176;6.470;2022-11-18T07:39:00;2.50;;;1.70;;
10896;SDS011;5501;51.176;6.470;2022-11-18T07:44:02;2.95;;;1.70;;
10896;SDS011;5501;51.176;6.470;2022-11-18T07:49:05;3.28;;;1.42;;
10896;SDS011;5501;51.176;6.470;2022-11-18T07:54:10;3.45;;;1.48;;
10896;SDS011;5501;51.176;6.470;2022-11-18T07:59:13;2.90;;;1.73;;
10896;SDS011;5501;51.176;6.470;2022-11-18T08:04:14;4.28;;;2.00;;
10896;SDS011;5501;51.176;6.470;2022-11-18T08:09:16;3.33;;;2.10;;
10896;SDS011;5501;51.176;6.470;2022-11-18T08:14:18;4.38;;;2.30;;
10896;SDS011;5501;51.176;6.470;2022-11-18T08:19:22;5.00;;;2.45;;
10896;SDS011;5501;51.176;6.470;2022-11-18T08:24:23;5.70;;;2.72;;
10896;SDS011;5501;51.176;6.470;2022-11-18T08:29:26;4.60;;;2.13;;
10896;SDS011;5501;51.176;6.470;2022-11-18T08:34:28;5.80;;;2.38;;
10896;SDS011;5501;51.176;6.470;2022-11-18T08:39:30;3.38;;;2.15;;
10896;SDS011;5501;51.176;6.470;2022-11-18T08:44:31;2.50;;;1.80;;
10896;SDS011;5501;51.176;6.470;2022-11-18T08:49:34;3.28;;;1.90;;
10896;SDS011;5501;51.176;6.470;2022-11-18T08:54:36;4.32;;;2.00;;
10896;SDS011;5501;51.176;6.470;2022-11-18T08:59:37;5.35;;;2.30;;
10896;SDS011;5501;51.176;6.470;2022-11-18T09:04:39;4.50;;;2.33;;
10896;SDS011;5501;51.176;6.470;2022-11-18T09:09:40;5.05;;;2.20;;
10896;SDS011;5501;51.176;6.470;2022-11-18T09:14:43;2.25;;;1.95;;
10896;SDS011;5501;51.176;6.470;2022-11-18T09:20:05;4.03;;;2.40;;
10896;SDS011;5501;51.176;6.470;2022-11-18T09:25:07;4.03;;;1.75;;
10896;SDS011;5501;51.176;6.470;2022-11-18T09:30:09;2.65;;;1.83;;
10896;SDS011;5501;51.176;6.470;2022-11-18T09:35:11;4.63;;;1.42;;
10896;SDS011;5501;51.176;6.470;2022-11-18T09:40:13;3.00;;;1.80;;
10896;SDS011;5501;51.176;6.470;2022-11-18T09:45:22;4.60;;;1.50;;
10896;SDS011;5501;51.176;6.470;2022-11-18T09:50:26;4.65;;;1.50;;
10896;SDS011;5501;51.176;6.470;2022-11-18T09:55:48;2.20;;;1.50;;
10896;SDS011;5501;51.176;6.470;2022-11-18T10:00:51;4.10;;;1.35;;
10896;SDS011;5501;51.176;6.470;2022-11-18T10:11:17;2.80;;;1.08;;
10896;SDS011;5501;51.176;6.470;2022-11-18T10:27:26;3.08;;;1.65;;
10896;SDS011;5501;51.176;6.470;2022-11-18T10:32:35;7.88;;;1.30;;
10896;SDS011;5501;51.176;6.470;2022-11-18T10:48:46;2.45;;;1.25;;
10896;SDS011;5501;51.176;6.470;2022-11-18T10:53:47;4.85;;;1.10;;
10896;SDS011;5501;51.176;6.470;2022-11-18T10:58:49;4.55;;;1.25;;
10896;SDS011;5501;51.176;6.470;2022-11-18T11:09:02;3.57;;;1.10;;
10896;SDS011;5501;51.176;6.470;2022-11-18T11:14:50;3.20;;;1.20;;
10896;SDS011;5501;51.176;6.470;2022-11-18T11:19:59;3.35;;;1.40;;
10896;SDS011;5501;51.176;6.470;2022-11-18T11:25:30;1.65;;;1.00;;
10896;SDS011;5501;51.176;6.470;2022-11-18T11:42:38;8.85;;;1.33;;
10896;SDS011;5501;51.176;6.470;2022-11-18T12:04:01;1.92;;;1.38;;
10896;SDS011;5501;51.176;6.470;2022-11-18T12:09:19;2.80;;;1.35;;
10896;SDS011;5501;51.176;6.470;2022-11-18T12:14:33;4.72;;;1.48;;
10896;SDS011;5501;51.176;6.470;2022-11-18T12:19:41;3.78;;;1.35;;
10896;SDS011;5501;51.176;6.470;2022-11-18T12:24:42;3.05;;;1.20;;
10896;SDS011;5501;51.176;6.470;2022-11-18T12:34:54;2.85;;;1.67;;
10896;SDS011;5501;51.176;6.470;2022-11-18T12:50:49;3.33;;;1.42;;
10896;SDS011;5501;51.176;6.470;2022-11-18T12:55:52;4.40;;;1.90;;
10896;SDS011;5501;51.176;6.470;2022-11-18T13:01:08;6.47;;;1.73;;
10896;SDS011;5501;51.176;6.470;2022-11-18T13:06:25;5.25;;;1.70;;
10896;SDS011;5501;51.176;6.470;2022-11-18T13:11:30;3.90;;;2.05;;
10896;SDS011;5501;51.176;6.470;2022-11-18T13:16:46;3.85;;;1.60;;
10896;SDS011;5501;51.176;6.470;2022-11-18T13:22:15;3.63;;;2.00;;
10896;SDS011;5501;51.176;6.470;2022-11-18T13:27:59;6.47;;;1.73;;
10896;SDS011;5501;51.176;6.470;2022-11-18T13:33:12;3.45;;;1.70;;
10896;SDS011;5501;51.176;6.470;2022-11-18T13:38:20;4.10;;;1.67;;
10896;SDS011;5501;51.176;6.470;2022-11-18T13:43:32;2.65;;;1.63;;
10896;SDS011;5501;51.176;6.470;2022-11-18T13:48:36;3.65;;;1.70;;
10896;SDS011;5501;51.176;6.470;2022-11-18T13:53:45;1.88;;;1.73;;
10896;SDS011;5501;51.176;6.470;2022-11-18T13:58:51;5.82;;;1.92;;
10896;SDS011;5501;51.176;6.470;2022-11-18T14:04:20;4.35;;;2.35;;
10896;SDS011;5501;51.176;6.470;2022-11-18T14:09:24;8.02;;;2.28;;
10896;SDS011;5501;51.176;6.470;2022-11-18T14:14:32;2.72;;;1.70;;
10896;SDS011;5501;51.176;6.470;2022-11-18T14:19:38;5.50;;;1.98;;
10896;SDS011;5501;51.176;6.470;2022-11-18T14:24:40;3.03;;;1.73;;
10896;SDS011;5501;51.176;6.470;2022-11-18T14:29:48;6.72;;;1.92;;
10896;SDS011;5501;51.176;6.470;2022-11-18T14:34:59;4.43;;;1.58;;
10896;SDS011;5501;51.176;6.470;2022-11-18T14:40:01;4.13;;;1.23;;
10896;SDS011;5501;51.176;6.470;2022-11-18T14:45:02;6.35;;;1.90;;
10896;SDS011;5501;51.176;6.470;2022-11-18T14:50:07;3.25;;;1.38;;
10896;SDS011;5501;51.176;6.470;2022-11-18T14:55:13;6.43;;;2.33;;
10896;SDS011;5501;51.176;6.470;2022-11-18T15:00:14;2.90;;;1.17;;
10896;SDS011;5501;51.176;6.470;2022-11-18T15:05:16;5.47;;;2.10;;
10896;SDS011;5501;51.176;6.470;2022-11-18T15:10:17;5.82;;;2.03;;
10896;SDS011;5501;51.176;6.470;2022-11-18T15:15:19;8.70;;;2.53;;
10896;SDS011;5501;51.176;6.470;2022-11-18T15:20:21;5.00;;;2.63;;
10896;SDS011;5501;51.176;6.470;2022-11-18T15:25:23;4.78;;;2.20;;
10896;SDS011;5501;51.176;6.470;2022-11-18T15:30:24;3.78;;;2.17;;
10896;SDS011;5501;51.176;6.470;2022-11-18T15:35:26;4.97;;;2.35;;
10896;SDS011;5501;51.176;6.470;2022-11-18T15:40:28;4.07;;;2.30;;
10896;SDS011;5501;51.176;6.470;2022-11-18T15:45:29;4.57;;;2.20;;
10896;SDS011;5501;51.176;6.470;2022-11-18T15:50:31;3.65;;;2.03;;
10896;SDS011;5501;51.176;6.470;2022-11-18T15:55:32;2.92;;;1.65;;
10896;SDS011;5501;51.176;6.470;2022-11-18T16:00:34;5.95;;;2.30;;
10896;SDS011;5501;51.176;6.470;2022-11-18T16:05:35;4.47;;;2.00;;
10896;SDS011;5501;51.176;6.470;2022-11-18T16:10:37;2.40;;;1.80;;
10896;SDS011;5501;51.176;6.470;2022-11-18T16:15:57;3.42;;;2.20;;
10896;SDS011;5501;51.176;6.470;2022-11-18T16:20:59;6.40;;;2.65;;
10896;SDS011;5501;51.176;6.470;2022-11-18T16:26:00;3.08;;;1.85;;
10896;SDS011;5501;51.176;6.470;2022-11-18T16:31:02;2.78;;;1.67;;
10896;SDS011;5501;51.176;6.470;2022-11-18T16:41:27;4.85;;;2.30;;
10896;SDS011;5501;51.176;6.470;2022-11-18T16:46:32;3.28;;;2.00;;
10896;SDS011;5501;51.176;6.470;2022-11-18T16:51:35;4.53;;;2.17;;
10896;SDS011;5501;51.176;6.470;2022-11-18T16:56:37;6.30;;;3.00;;
10896;SDS011;5501;51.176;6.470;2022-11-18T17:01:40;14.48;;;6.63;;
10896;SDS011;5501;51.176;6.470;2022-11-18T17:06:42;9.27;;;5.35;;
10896;SDS011;5501;51.176;6.470;2022-11-18T17:11:45;6.60;;;4.10;;
10896;SDS011;5501;51.176;6.470;2022-11-18T17:16:46;9.75;;;4.20;;
10896;SDS011;5501;51.176;6.470;2022-11-18T17:21:49;4.20;;;1.80;;
10896;SDS011;5501;51.176;6.470;2022-11-18T17:26:51;3.75;;;1.40;;
10896;SDS011;5501;51.176;6.470;2022-11-18T17:31:53;0.95;;;0.95;;
10896;SDS011;5501;51.176;6.470;2022-11-18T17:36:55;3.70;;;1.50;;
10896;SDS011;5501;51.176;6.470;2022-11-18T17:42:05;3.13;;;1.77;;
10896;SDS011;5501;51.176;6.470;2022-11-18T17:47:15;2.85;;;1.80;;
10896;SDS011;5501;51.176;6.470;2022-11-18T17:52:17;3.15;;;2.35;;
10896;SDS011;5501;51.176;6.470;2022-11-18T17:57:19;4.45;;;1.80;;
10896;SDS011;5501;51.176;6.470;2022-11-18T18:02:20;3.92;;;2.60;;
10896;SDS011;5501;51.176;6.470;2022-11-18T18:07:22;5.03;;;2.20;;
10896;SDS011;5501;51.176;6.470;2022-11-18T18:12:24;2.45;;;2.15;;
10896;SDS011;5501;51.176;6.470;2022-11-18T18:17:45;2.35;;;1.70;;
10896;SDS011;5501;51.176;6.470;2022-11-18T18:22:48;3.20;;;2.72;;
10896;SDS011;5501;51.176;6.470;2022-11-18T18:27:49;5.57;;;3.30;;
10896;SDS011;5501;51.176;6.470;2022-11-18T18:32:51;4.68;;;2.47;;
10896;SDS011;5501;51.176;6.470;2022-11-18T18:37:53;3.35;;;2.25;;
10896;SDS011;5501;51.176;6.470;2022-11-18T18:42:54;3.65;;;1.95;;
10896;SDS011;5501;51.176;6.470;2022-11-18T18:47:56;2.30;;;1.80;;
10896;SDS011;5501;51.176;6.470;2022-11-18T18:53:02;4.57;;;2.00;;
10896;SDS011;5501;51.176;6.470;2022-11-18T18:58:03;2.22;;;2.03;;
10896;SDS011;5501;51.176;6.470;2022-11-18T19:03:05;2.97;;;1.95;;
10896;SDS011;5501;51.176;6.470;2022-11-18T19:08:06;3.20;;;2.55;;
10896;SDS011;5501;51.176;6.470;2022-11-18T19:13:08;5.43;;;3.33;;
10896;SDS011;5501;51.176;6.470;2022-11-18T19:18:09;5.22;;;3.65;;
10896;SDS011;5501;51.176;6.470;2022-11-18T19:23:11;4.03;;;3.50;;
10896;SDS011;5501;51.176;6.470;2022-11-18T19:28:13;4.25;;;3.47;;
10896;SDS011;5501;51.176;6.470;2022-11-18T19:33:14;4.13;;;2.95;;
10896;SDS011;5501;51.176;6.470;2022-11-18T19:38:16;4.72;;;2.97;;
10896;SDS011;5501;51.176;6.470;2022-11-18T19:43:17;4.20;;;2.85;;
10896;SDS011;5501;51.176;6.470;2022-11-18T19:48:19;4.70;;;2.95;;
10896;SDS011;5501;51.176;6.470;2022-11-18T19:53:20;7.00;;;3.90;;
10896;SDS011;5501;51.176;6.470;2022-11-18T19:58:35;8.48;;;4.68;;
10896;SDS011;5501;51.176;6.470;2022-11-18T20:03:38;9.10;;;4.68;;
10896;SDS011;5501;51.176;6.470;2022-11-18T20:08:44;6.25;;;3.63;;
10896;SDS011;5501;51.176;6.470;2022-11-18T20:13:46;8.05;;;4.82;;
10896;SDS011;5501;51.176;6.470;2022-11-18T20:18:52;7.70;;;4.70;;
10896;SDS011;5501;51.176;6.470;2022-11-18T20:23:56;8.20;;;5.40;;
10896;SDS011;5501;51.176;6.470;2022-11-18T20:28:59;6.72;;;5.05;;
10896;SDS011;5501;51.176;6.470;2022-11-18T20:34:01;8.43;;;5.43;;
10896;SDS011;5501;51.176;6.470;2022-11-18T20:39:04;6.18;;;5.55;;
10896;SDS011;5501;51.176;6.470;2022-11-18T20:44:07;7.72;;;5.20;;
10896;SDS011;5501;51.176;6.470;2022-11-18T20:49:09;7.93;;;5.22;;
10896;SDS011;5501;51.176;6.470;2022-11-18T20:54:10;8.98;;;5.18;;
10896;SDS011;5501;51.176;6.470;2022-11-18T20:59:12;8.70;;;5.30;;
10896;SDS011;5501;51.176;6.470;2022-11-18T21:04:13;5.88;;;4.55;;
10896;SDS011;5501;51.176;6.470;2022-11-18T21:09:15;7.05;;;5.13;;
10896;SDS011;5501;51.176;6.470;2022-11-18T21:14:17;5.22;;;4.03;;
10896;SDS011;5501;51.176;6.470;2022-11-18T21:19:26;10.18;;;4.15;;
10896;SDS011;5501;51.176;6.470;2022-11-18T21:24:29;9.07;;;4.47;;
10896;SDS011;5501;51.176;6.470;2022-11-18T21:29:32;10.55;;;4.93;;
10896;SDS011;5501;51.176;6.470;2022-11-18T21:34:33;6.25;;;4.90;;
10896;SDS011;5501;51.176;6.470;2022-11-18T21:39:35;8.20;;;4.60;;
10896;SDS011;5501;51.176;6.470;2022-11-18T21:44:36;7.53;;;4.55;;
10896;SDS011;5501;51.176;6.470;2022-11-18T21:49:38;5.18;;;4.68;;
10896;SDS011;5501;51.176;6.470;2022-11-18T21:54:40;5.95;;;4.45;;
10896;SDS011;5501;51.176;6.470;2022-11-18T21:59:41;8.63;;;5.40;;
10896;SDS011;5501;51.176;6.470;2022-11-18T22:04:42;6.18;;;4.57;;
10896;SDS011;5501;51.176;6.470;2022-11-18T22:09:53;7.22;;;4.75;;
10896;SDS011;5501;51.176;6.470;2022-11-18T22:14:55;8.35;;;5.75;;
10896;SDS011;5501;51.176;6.470;2022-11-18T22:19:56;8.23;;;4.80;;
10896;SDS011;5501;51.176;6.470;2022-11-18T22:24:58;6.72;;;5.22;;
10896;SDS011;5501;51.176;6.470;2022-11-18T22:29:59;8.63;;;5.75;;
10896;SDS011;5501;51.176;6.470;2022-11-18T22:35:01;7.50;;;5.25;;
10896;SDS011;5501;51.176;6.470;2022-11-18T22:40:03;6.97;;;5.15;;
10896;SDS011;5501;51.176;6.470;2022-11-18T22:45:05;9.07;;;6.15;;
10896;SDS011;5501;51.176;6.470;2022-11-18T22:50:08;7.30;;;5.90;;
10896;SDS011;5501;51.176;6.470;2022-11-18T22:55:10;8.02;;;5.95;;
10896;SDS011;5501;51.176;6.470;2022-11-18T23:00:12;9.13;;;5.93;;
10896;SDS011;5501;51.176;6.470;2022-11-18T23:05:14;6.82;;;5.85;;
10896;SDS011;5501;51.176;6.470;2022-11-18T23:10:15;11.65;;;7.13;;
10896;SDS011;5501;51.176;6.470;2022-11-18T23:15:17;9.95;;;5.53;;
10896;SDS011;5501;51.176;6.470;2022-11-18T23:20:18;11.00;;;7.05;;
10896;SDS011;5501;51.176;6.470;2022-11-18T23:25:20;9.02;;;6.13;;
10896;SDS011;5501;51.176;6.470;2022-11-18T23:30:21;9.52;;;7.05;;
10896;SDS011;5501;51.176;6.470;2022-11-18T23:35:22;12.02;;;7.65;;
10896;SDS011;5501;51.176;6.470;2022-11-18T23:40:24;8.40;;;4.78;;
10896;SDS011;5501;51.176;6.470;2022-11-18T23:45:26;4.68;;;3.47;;
10896;SDS011;5501;51.176;6.470;2022-11-18T23:50:27;6.10;;;3.83;;
10896;SDS011;5501;51.176;6.470;2022-11-18T23:55:28;4.50;;;3.25;;
